Aérodrome :
LOGIN :

S'inscrire | Disclaimer

   EN    FR    IT 

 










Légende :    VFR   VFR Marginal   IFR   IFR Intensif   IFR Très Intensif
Visi : 
Plafond : 
>= 8 km
>= 3000ft
5 à 8 km
1000 à 3000 ft
1500m à 5 km
500 à 1000 ft
800 à 1500m
200 à 500 ft
< 800m
< 200 ft
Symboles :   Orages  Brouillard  Fortes neiges  Fortes précipitations  Vent > 20 kt
SIGMETs :   Divers  Orages  Givrage  Turbulence  Onde Orograph.  Cendres Volcan.







- Altitude de l'aérodrome : 39 ft
- Code IATA : ANR


EBAW - Anvers / Antwerpen Deurne

DERNIER METAR :
  • 201650Z 08003KT 9999 -DZ SCT004 BKN005 02/01 Q0999 TEMPO BKN004

METARs EXPIRÉS :
  • 201620Z 10006KT 9999 -DZ SCT004 BKN005 02/01 Q0999 TEMPO BKN004
  • 201550Z 09004KT 9999 -DZ SCT004 BKN005 02/01 Q0999 TEMPO BKN004
  • 201520Z 13005KT 9999 -DZ SCT004 BKN005 02/01 Q0999 TEMPO BKN004
  • 201450Z 12006KT 9999 -RA SCT004 BKN005 02/01 Q0999 TEMPO BKN004
  • 201420Z 13005KT 9999 -RA SCT005 BKN006 02/01 Q0999 TEMPO -RASN
  • 201350Z 14004KT 120V180 8000 -RA FEW006 BKN007 03/01 Q1000 TEMPO -RASN

TAF TAF EBAW
Valide du 20 à 15h jusqu'au 21 à 00h UTC


201420Z 2015/2024 10003KT 7000 BKN012
TEMPO 2015/2024 3000 RASN RADZ BKN005
PROB30
TEMPO 2020/2024 BKN018
Pas de NOTAMs connus pour ce terrain.
2 SIGMETs publiés pour la FIR Brussels (EBBU) :
 
Givrage fort
EBBU SIGMET 04 VALID 201407/201700 EBBR
EBBU BRUSSELS FIR SEV ICE FCST E OF E004 FL025/100 MOV E WKN=
Turbulence forte
EBBU SIGMET 03 VALID 201400/201800 EBBR
EBBU BRUSSELS FIR SEV TURB FCST ENTIRE FIR FL180/310 MOV ENE NC=



MET'MAP, la Météo Aéronautique d'un coup d'oeil ! - Copyright ORBIFLY Décembre 2007 - Disclaimer

ORBIFLY MET'MAP TEAM :

Programmation & Développement : Alexandra Zaïnal
Conception & Développement : Baudouin d'Aumeries
Co-Programmation & Développement : Marc-Olivier Méhu
Soutien technique & logistique : Manuel Goepfert

Contact : metmap@orbifly.com




SOURCES & CREDITS :

   NOAA